createdAt,value
2023-01-17T00:00:06.356Z,13.16
2023-01-17T00:05:27.547Z,13.20
2023-01-17T00:10:30.695Z,13.25
2023-01-17T00:15:35.239Z,13.30
2023-01-17T00:20:55.980Z,13.31
2023-01-17T00:26:04.931Z,13.36
2023-01-17T00:31:09.834Z,13.34
2023-01-17T00:36:12.015Z,13.31
2023-01-17T00:41:15.312Z,13.36
2023-01-17T00:46:38.204Z,13.42
2023-01-17T00:51:58.667Z,13.45
2023-01-17T00:57:19.722Z,13.43
2023-01-17T01:02:42.791Z,13.44
2023-01-17T01:08:03.429Z,13.39
2023-01-17T01:13:23.838Z,13.41
2023-01-17T01:18:45.961Z,13.40
2023-01-17T01:24:06.453Z,13.39
2023-01-17T01:29:26.932Z,13.41
2023-01-17T01:34:31.469Z,13.47
2023-01-17T01:39:34.664Z,13.50
2023-01-17T01:44:46.378Z,13.45
2023-01-17T01:49:52.022Z,13.41
2023-01-17T01:54:59.752Z,13.46
2023-01-17T02:00:06.861Z,13.40
2023-01-17T02:05:14.326Z,13.40
2023-01-17T02:10:17.719Z,13.47
2023-01-17T02:15:25.254Z,13.45
2023-01-17T02:21:22.885Z,13.47
2023-01-17T02:26:46.953Z,13.51
2023-01-17T02:31:57.013Z,13.48
2023-01-17T02:37:05.953Z,13.35
2023-01-17T02:42:15.343Z,13.35
2023-01-17T02:47:24.819Z,13.18
2023-01-17T02:52:50.868Z,13.10
2023-01-17T02:58:07.735Z,13.08
2023-01-17T03:03:22.073Z,13.03
2023-01-17T03:08:26.670Z,13.10
2023-01-17T03:13:29.816Z,13.08
2023-01-17T03:18:34.571Z,13.03
2023-01-17T03:23:37.729Z,13.11
2023-01-17T03:28:42.424Z,13.17
2023-01-17T03:33:47.062Z,13.14
2023-01-17T03:38:50.194Z,13.22
2023-01-17T03:43:53.303Z,13.28
2023-01-17T03:48:57.842Z,13.24
2023-01-17T03:54:02.002Z,13.29
2023-01-17T03:59:05.157Z,13.26
2023-01-17T04:04:09.709Z,13.27
2023-01-17T04:09:12.823Z,13.29
2023-01-17T04:14:15.935Z,13.30
2023-01-17T04:19:20.546Z,13.28
2023-01-17T04:24:23.673Z,13.32
2023-01-17T04:29:26.903Z,13.28
2023-01-17T04:34:31.427Z,13.26
2023-01-17T04:39:34.597Z,12.91
2023-01-17T04:44:37.715Z,12.62
2023-01-17T04:49:44.061Z,12.58
2023-01-17T04:54:49.515Z,12.43
2023-01-17T04:59:53.659Z,12.41
2023-01-17T05:04:58.229Z,12.25
2023-01-17T05:10:02.106Z,12.23
2023-01-17T05:15:06.089Z,12.27
2023-01-17T05:20:12.234Z,12.22
2023-01-17T05:25:15.483Z,12.24
2023-01-17T05:30:19.331Z,12.28
2023-01-17T05:35:26.355Z,12.27
2023-01-17T05:40:31.185Z,12.25
2023-01-17T05:45:35.376Z,12.24
2023-01-17T05:50:40.158Z,12.15
2023-01-17T05:55:43.797Z,12.24
2023-01-17T06:00:47.638Z,12.25
2023-01-17T06:05:52.213Z,12.21
2023-01-17T06:10:55.365Z,12.20
2023-01-17T06:16:02.942Z,12.12
2023-01-17T06:21:07.811Z,12.13
2023-01-17T06:26:11.080Z,12.04
2023-01-17T06:31:14.271Z,11.94
2023-01-17T06:36:18.993Z,11.81
2023-01-17T06:41:23.337Z,11.69
2023-01-17T06:46:26.519Z,11.58
2023-01-17T06:51:31.081Z,11.56
2023-01-17T06:56:34.834Z,11.59
2023-01-17T07:01:38.071Z,11.64
2023-01-17T07:06:42.664Z,11.65
2023-01-17T07:11:45.812Z,11.66
2023-01-17T07:16:50.190Z,11.70
2023-01-17T07:21:55.362Z,11.79
2023-01-17T07:26:58.480Z,11.34
2023-01-17T07:32:03.330Z,11.22
2023-01-17T07:37:08.206Z,11.19
2023-01-17T07:42:11.310Z,11.05
2023-01-17T07:47:14.457Z,11.17
2023-01-17T07:52:18.956Z,11.20
2023-01-17T07:57:22.253Z,11.12
2023-01-17T08:02:25.429Z,11.11
2023-01-17T08:07:29.991Z,11.15
2023-01-17T08:12:34.191Z,11.18
2023-01-17T08:17:37.284Z,11.04
2023-01-17T08:22:41.806Z,11.07
2023-01-17T08:27:44.938Z,11.07
2023-01-17T08:32:48.110Z,11.14
2023-01-17T08:37:56.469Z,11.19
2023-01-17T08:43:01.563Z,11.31
2023-01-17T08:48:04.420Z,11.28
2023-01-17T08:53:08.979Z,11.42
2023-01-17T08:58:12.104Z,11.45
2023-01-17T09:03:15.207Z,11.36
2023-01-17T09:08:19.730Z,10.91
2023-01-17T09:13:22.847Z,10.77
2023-01-17T09:18:26.002Z,10.81
2023-01-17T09:23:31.671Z,10.92
2023-01-17T09:28:41.093Z,11.02
2023-01-17T09:33:44.231Z,11.23
2023-01-17T09:38:48.999Z,11.21
2023-01-17T09:43:56.693Z,11.18
2023-01-17T09:49:05.965Z,11.20
2023-01-17T09:54:21.701Z,11.22
2023-01-17T09:59:35.828Z,11.10
2023-01-17T10:04:55.689Z,11.03
2023-01-17T10:10:14.421Z,11.07
2023-01-17T10:15:44.106Z,11.09
2023-01-17T10:20:53.088Z,11.01
2023-01-17T10:26:01.310Z,10.99
2023-01-17T10:31:07.526Z,11.07
2023-01-17T10:36:16.511Z,11.08
2023-01-17T10:41:26.597Z,11.11
2023-01-17T10:46:36.521Z,11.16
2023-01-17T10:52:00.422Z,11.25
2023-01-17T10:57:05.667Z,11.38
2023-01-17T11:02:16.529Z,11.41
2023-01-17T11:07:21.804Z,11.32
2023-01-17T11:12:30.943Z,10.81
2023-01-17T11:17:35.153Z,10.79
2023-01-17T11:22:38.840Z,10.83
2023-01-17T11:27:44.552Z,10.80
2023-01-17T11:32:53.983Z,10.78
2023-01-17T11:38:06.726Z,10.83
2023-01-17T11:43:23.596Z,10.76
2023-01-17T11:48:26.707Z,11.04
2023-01-17T11:53:33.298Z,11.05
2023-01-17T11:58:41.754Z,11.20
2023-01-17T12:04:08.258Z,11.05
2023-01-17T12:09:23.078Z,10.84
2023-01-17T12:14:35.047Z,10.78
2023-01-17T12:20:00.976Z,10.65
2023-01-17T12:25:15.000Z,10.72
2023-01-17T12:30:38.133Z,10.65
2023-01-17T12:35:46.510Z,10.72
2023-01-17T12:40:55.714Z,10.55
2023-01-17T12:46:06.102Z,10.96
2023-01-17T12:51:15.610Z,10.97
2023-01-17T12:56:25.328Z,11.06
2023-01-17T13:01:32.910Z,11.12
2023-01-17T13:06:46.885Z,11.13
2023-01-17T13:11:55.059Z,11.18
2023-01-17T13:17:02.022Z,11.18
2023-01-17T13:22:08.845Z,11.22
2023-01-17T13:27:40.236Z,11.10
2023-01-17T13:33:16.437Z,10.99
2023-01-17T13:38:43.136Z,10.79
2023-01-17T13:44:08.203Z,10.84
2023-01-17T13:49:44.204Z,10.92
2023-01-17T13:54:49.697Z,11.06
2023-01-17T13:59:53.808Z,11.10
2023-01-17T14:05:15.316Z,10.98
2023-01-17T14:10:38.700Z,10.90
2023-01-17T14:15:51.023Z,10.78
2023-01-17T14:21:10.009Z,10.86
2023-01-17T14:26:23.480Z,10.83
2023-01-17T14:31:28.208Z,10.92
2023-01-17T14:36:34.675Z,10.91
2023-01-17T14:41:38.608Z,10.80
2023-01-17T14:46:42.019Z,10.91
2023-01-17T14:52:00.275Z,10.95
2023-01-17T14:57:16.844Z,10.94
2023-01-17T15:02:20.490Z,10.73
2023-01-17T15:07:26.765Z,10.52
2023-01-17T15:12:29.980Z,10.31
2023-01-17T15:17:33.236Z,10.03
2023-01-17T15:22:37.896Z,10.12
2023-01-17T15:27:41.104Z,10.07
2023-01-17T15:32:49.371Z,9.99
2023-01-17T15:37:58.326Z,10.10
2023-01-17T15:43:02.065Z,10.02
2023-01-17T15:48:40.670Z,9.98
2023-01-17T15:53:45.282Z,10.08
2023-01-17T15:58:50.389Z,10.05
2023-01-17T16:03:55.362Z,10.10
2023-01-17T16:08:59.868Z,10.13
2023-01-17T16:14:02.995Z,10.20
2023-01-17T16:19:07.671Z,10.05
2023-01-17T16:24:12.754Z,10.06
2023-01-17T16:29:15.655Z,9.81
2023-01-17T16:34:18.944Z,10.00
2023-01-17T16:39:23.499Z,9.94
2023-01-17T16:44:26.641Z,10.02
2023-01-17T16:49:32.976Z,9.99
2023-01-17T16:54:37.489Z,9.97
2023-01-17T16:59:50.383Z,9.97
2023-01-17T17:04:54.148Z,9.86
2023-01-17T17:09:58.763Z,9.87
2023-01-17T17:15:01.942Z,9.83
2023-01-17T17:20:06.187Z,9.97
2023-01-17T17:25:12.002Z,9.93
2023-01-17T17:30:15.892Z,9.83
2023-01-17T17:35:19.054Z,9.69
2023-01-17T17:40:23.607Z,9.56
2023-01-17T17:45:26.765Z,9.56
2023-01-17T17:50:29.882Z,9.45
2023-01-17T17:55:35.273Z,9.40
2023-01-17T18:00:38.404Z,9.41
2023-01-17T18:05:41.571Z,9.44
2023-01-17T18:10:47.176Z,9.45
2023-01-17T18:15:50.275Z,9.45
2023-01-17T18:20:53.434Z,9.38
2023-01-17T18:25:58.000Z,9.33
2023-01-17T18:31:06.431Z,9.32
2023-01-17T18:36:12.138Z,9.34
2023-01-17T18:41:18.844Z,9.42
2023-01-17T18:46:22.005Z,9.60
2023-01-17T18:51:25.930Z,9.38
2023-01-17T18:56:31.255Z,9.34
2023-01-17T19:01:36.405Z,9.44
2023-01-17T19:06:41.411Z,9.48
2023-01-17T19:11:47.616Z,9.35
2023-01-17T19:16:50.893Z,9.37
2023-01-17T19:21:54.065Z,9.48
2023-01-17T19:26:58.597Z,9.37
2023-01-17T19:32:01.936Z,9.21
2023-01-17T19:37:06.164Z,9.31
2023-01-17T19:42:15.555Z,9.31
2023-01-17T19:47:18.766Z,9.40
2023-01-17T19:52:24.135Z,9.45
2023-01-17T19:57:34.803Z,9.43
2023-01-17T20:02:38.861Z,9.50
2023-01-17T20:07:41.987Z,9.25
2023-01-17T20:12:46.557Z,9.03
2023-01-17T20:17:49.670Z,9.13
2023-01-17T20:22:53.803Z,9.11
2023-01-17T20:27:58.771Z,9.09
2023-01-17T20:33:01.826Z,8.97
2023-01-17T20:38:04.960Z,9.00
2023-01-17T20:43:10.130Z,8.67
2023-01-17T20:48:12.953Z,8.72
2023-01-17T20:53:16.225Z,8.70
2023-01-17T20:58:22.257Z,8.67
2023-01-17T21:03:28.870Z,8.38
2023-01-17T21:08:32.741Z,8.24
2023-01-17T21:13:37.584Z,8.21
2023-01-17T21:18:40.795Z,8.18
2023-01-17T21:23:44.470Z,8.35
2023-01-17T21:28:50.825Z,8.32
2023-01-17T21:33:55.550Z,8.39
2023-01-17T21:39:00.271Z,8.42
2023-01-17T21:44:08.078Z,8.38
2023-01-17T21:49:12.274Z,8.35
2023-01-17T21:54:15.495Z,8.29
2023-01-17T21:59:20.483Z,8.23
2023-01-17T22:04:24.768Z,8.26
2023-01-17T22:09:28.018Z,8.21
2023-01-17T22:14:32.847Z,8.12
2023-01-17T22:19:36.174Z,8.10
2023-01-17T22:24:40.499Z,8.13
2023-01-17T22:29:45.176Z,8.16
2023-01-17T22:34:48.702Z,8.09
2023-01-17T22:39:51.928Z,8.11
2023-01-17T22:44:56.626Z,8.07
2023-01-17T22:50:00.041Z,8.19
2023-01-17T22:55:03.355Z,8.29
2023-01-17T23:00:14.743Z,8.19
2023-01-17T23:05:18.218Z,8.15
2023-01-17T23:10:35.322Z,8.15
2023-01-17T23:15:57.666Z,8.03
2023-01-17T23:21:00.953Z,7.99
2023-01-17T23:26:04.393Z,8.05
2023-01-17T23:31:11.121Z,8.10
2023-01-17T23:36:14.376Z,8.30
2023-01-17T23:41:34.954Z,8.06
2023-01-17T23:46:39.625Z,7.96
2023-01-17T23:51:42.831Z,7.80
2023-01-17T23:56:46.286Z,7.81
